sensor_id;sensor_type;location;lat;lon;timestamp;pressure;altitude;pressure_sealevel;temperature;humidity
52291;BME280;39663;45.432;28.050;2022-08-04T00:06:54;101198.56;;;28.77;29.43
52291;BME280;39663;45.432;28.050;2022-08-04T00:07:37;101202.34;;;28.64;29.34
52291;BME280;39663;45.432;28.050;2022-08-04T00:08:18;101199.10;;;28.62;29.59
52291;BME280;39663;45.432;28.050;2022-08-04T00:08:56;101200.32;;;28.83;29.64
52291;BME280;39663;45.432;28.050;2022-08-04T00:09:38;101197.17;;;28.67;29.41
52291;BME280;39663;45.432;28.050;2022-08-04T00:10:10;101199.89;;;28.50;29.61
52291;BME280;39663;45.432;28.050;2022-08-04T00:10:48;101199.86;;;29.09;29.36
52291;BME280;39663;45.432;28.050;2022-08-04T00:11:22;101196.46;;;28.89;29.54
52291;BME280;39663;45.432;28.050;2022-08-04T00:11:59;101198.30;;;28.79;29.63
52291;BME280;39663;45.432;28.050;2022-08-04T00:12:35;101201.53;;;28.98;29.44
52291;BME280;39663;45.432;28.050;2022-08-04T00:13:07;101200.58;;;29.00;29.26
52291;BME280;39663;45.432;28.050;2022-08-04T00:13:44;101200.63;;;29.06;29.23
52291;BME280;39663;45.432;28.050;2022-08-04T00:14:20;101202.02;;;29.08;29.18
52291;BME280;39663;45.432;28.050;2022-08-04T00:14:57;101199.17;;;28.82;29.27
52291;BME280;39663;45.432;28.050;2022-08-04T00:15:29;101200.19;;;28.54;29.45
52291;BME280;39663;45.432;28.050;2022-08-04T00:16:04;101202.10;;;28.96;29.40
52291;BME280;39663;45.432;28.050;2022-08-04T00:16:38;101202.38;;;28.99;29.31
52291;BME280;39663;45.432;28.050;2022-08-04T00:17:11;101201.65;;;28.86;29.15
52291;BME280;39663;45.432;28.050;2022-08-04T00:17:48;101203.09;;;29.20;29.08
52291;BME280;39663;45.432;28.050;2022-08-04T00:18:25;101204.55;;;29.30;29.10
52291;BME280;39663;45.432;28.050;2022-08-04T00:18:59;101206.43;;;29.04;29.05
52291;BME280;39663;45.432;28.050;2022-08-04T00:19:39;101205.75;;;29.17;28.97
52291;BME280;39663;45.432;28.050;2022-08-04T00:20:14;101203.29;;;29.20;28.98
52291;BME280;39663;45.432;28.050;2022-08-04T00:20:48;101201.76;;;29.41;28.95
52291;BME280;39663;45.432;28.050;2022-08-04T00:21:24;101205.28;;;28.91;29.08
52291;BME280;39663;45.432;28.050;2022-08-04T00:22:01;101206.39;;;28.79;29.15
52291;BME280;39663;45.432;28.050;2022-08-04T00:22:34;101208.02;;;29.13;29.15
52291;BME280;39663;45.432;28.050;2022-08-04T00:23:06;101205.91;;;29.36;29.06
52291;BME280;39663;45.432;28.050;2022-08-04T00:23:42;101205.97;;;29.15;28.99
52291;BME280;39663;45.432;28.050;2022-08-04T00:24:16;101208.30;;;29.20;29.08
52291;BME280;39663;45.432;28.050;2022-08-04T00:24:48;101209.79;;;28.83;29.13
52291;BME280;39663;45.432;28.050;2022-08-04T00:25:20;101210.28;;;29.08;29.11
52291;BME280;39663;45.432;28.050;2022-08-04T00:25:52;101209.68;;;29.37;29.05
52291;BME280;39663;45.432;28.050;2022-08-04T00:26:24;101208.66;;;29.41;29.00
52291;BME280;39663;45.432;28.050;2022-08-04T00:26:57;101207.26;;;29.19;28.97
52291;BME280;39663;45.432;28.050;2022-08-04T00:27:29;101208.80;;;29.29;29.03
52291;BME280;39663;45.432;28.050;2022-08-04T00:28:02;101210.22;;;29.28;29.00
52291;BME280;39663;45.432;28.050;2022-08-04T00:28:35;101212.28;;;29.29;29.01
52291;BME280;39663;45.432;28.050;2022-08-04T00:29:09;101211.37;;;29.20;28.94
52291;BME280;39663;45.432;28.050;2022-08-04T00:29:41;101208.94;;;28.94;28.97
52291;BME280;39663;45.432;28.050;2022-08-04T00:30:15;101208.44;;;29.06;29.06
52291;BME280;39663;45.432;28.050;2022-08-04T00:30:48;101210.69;;;29.26;29.13
52291;BME280;39663;45.432;28.050;2022-08-04T00:31:21;101209.53;;;29.18;29.06
52291;BME280;39663;45.432;28.050;2022-08-04T00:31:55;101211.41;;;29.40;28.95
52291;BME280;39663;45.432;28.050;2022-08-04T00:32:28;101207.07;;;28.97;29.03
52291;BME280;39663;45.432;28.050;2022-08-04T00:33:02;101209.11;;;29.21;29.11
52291;BME280;39663;45.432;28.050;2022-08-04T00:33:35;101209.98;;;29.09;29.13
52291;BME280;39663;45.432;28.050;2022-08-04T00:34:11;101207.92;;;28.86;29.13
52291;BME280;39663;45.432;28.050;2022-08-04T00:34:46;101209.12;;;28.72;29.28
52291;BME280;39663;45.432;28.050;2022-08-04T00:35:20;101208.05;;;29.07;29.30
52291;BME280;39663;45.432;28.050;2022-08-04T00:35:54;101209.13;;;29.27;29.16
52291;BME280;39663;45.432;28.050;2022-08-04T00:36:28;101206.29;;;29.19;29.02
52291;BME280;39663;45.432;28.050;2022-08-04T00:37:05;101206.78;;;29.19;29.04
52291;BME280;39663;45.432;28.050;2022-08-04T00:37:38;101206.82;;;29.33;29.00
52291;BME280;39663;45.432;28.050;2022-08-04T00:38:11;101207.40;;;29.05;29.04
52291;BME280;39663;45.432;28.050;2022-08-04T00:38:47;101207.90;;;29.21;29.19
52291;BME280;39663;45.432;28.050;2022-08-04T00:39:21;101208.76;;;28.96;29.27
52291;BME280;39663;45.432;28.050;2022-08-04T00:39:54;101207.54;;;29.18;29.32
52291;BME280;39663;45.432;28.050;2022-08-04T00:40:35;101208.80;;;28.90;29.33
52291;BME280;39663;45.432;28.050;2022-08-04T00:41:20;101207.40;;;29.15;29.51
52291;BME280;39663;45.432;28.050;2022-08-04T00:42:09;101209.30;;;29.13;29.33
52291;BME280;39663;45.432;28.050;2022-08-04T00:42:50;101205.79;;;28.79;29.33
52291;BME280;39663;45.432;28.050;2022-08-04T00:43:34;101206.84;;;29.26;29.24
52291;BME280;39663;45.432;28.050;2022-08-04T00:44:24;101206.45;;;29.13;29.11
52291;BME280;39663;45.432;28.050;2022-08-04T00:45:20;101205.52;;;28.97;29.15
52291;BME280;39663;45.432;28.050;2022-08-04T00:46:48;101208.16;;;28.91;29.16
52291;BME280;39663;45.432;28.050;2022-08-04T00:47:38;101205.30;;;29.02;29.30
52291;BME280;39663;45.432;28.050;2022-08-04T00:48:26;101206.22;;;29.07;29.16
52291;BME280;39663;45.432;28.050;2022-08-04T00:49:18;101206.06;;;29.25;29.26
52291;BME280;39663;45.432;28.050;2022-08-04T00:50:04;101206.03;;;28.89;29.34
52291;BME280;39663;45.432;28.050;2022-08-04T00:50:44;101206.62;;;28.95;29.44
52291;BME280;39663;45.432;28.050;2022-08-04T00:51:27;101205.33;;;28.60;29.74
52291;BME280;39663;45.432;28.050;2022-08-04T00:52:14;101207.28;;;29.11;29.39
52291;BME280;39663;45.432;28.050;2022-08-04T00:52:58;101207.51;;;29.16;29.30
52291;BME280;39663;45.432;28.050;2022-08-04T00:53:39;101207.90;;;28.90;29.39
52291;BME280;39663;45.432;28.050;2022-08-04T00:54:31;101206.04;;;28.94;29.33
52291;BME280;39663;45.432;28.050;2022-08-04T00:55:21;101205.27;;;28.96;29.45
52291;BME280;39663;45.432;28.050;2022-08-04T00:56:06;101206.65;;;28.78;29.53
52291;BME280;39663;45.432;28.050;2022-08-04T00:56:59;101206.75;;;29.09;29.42
52291;BME280;39663;45.432;28.050;2022-08-04T00:57:47;101205.64;;;28.53;29.54
52291;BME280;39663;45.432;28.050;2022-08-04T00:58:29;101206.06;;;28.51;29.71
52291;BME280;39663;45.432;28.050;2022-08-04T00:59:17;101207.48;;;28.77;29.82
52291;BME280;39663;45.432;28.050;2022-08-04T01:00:05;101209.19;;;28.74;29.73
52291;BME280;39663;45.432;28.050;2022-08-04T01:00:51;101207.37;;;28.41;29.68
52291;BME280;39663;45.432;28.050;2022-08-04T01:01:46;101206.54;;;28.66;29.77
52291;BME280;39663;45.432;28.050;2022-08-04T01:02:38;101206.54;;;28.32;29.81
52291;BME280;39663;45.432;28.050;2022-08-04T01:03:28;101210.33;;;28.76;29.66
52291;BME280;39663;45.432;28.050;2022-08-04T01:04:15;101208.85;;;28.51;29.57
52291;BME280;39663;45.432;28.050;2022-08-04T01:05:02;101209.15;;;28.92;29.65
52291;BME280;39663;45.432;28.050;2022-08-04T01:05:47;101208.43;;;28.48;29.81
52291;BME280;39663;45.432;28.050;2022-08-04T01:06:35;101207.69;;;28.70;29.87
52291;BME280;39663;45.432;28.050;2022-08-04T01:07:23;101205.75;;;28.37;29.90
52291;BME280;39663;45.432;28.050;2022-08-04T01:08:33;101207.80;;;28.68;29.65
52291;BME280;39663;45.432;28.050;2022-08-04T01:09:30;101210.25;;;28.87;29.55
52291;BME280;39663;45.432;28.050;2022-08-04T01:10:15;101209.53;;;28.45;29.66
52291;BME280;39663;45.432;28.050;2022-08-04T01:11:13;101208.16;;;28.71;29.66
52291;BME280;39663;45.432;28.050;2022-08-04T01:12:09;101209.25;;;28.73;29.78
52291;BME280;39663;45.432;28.050;2022-08-04T01:13:03;101209.94;;;28.52;29.69
52291;BME280;39663;45.432;28.050;2022-08-04T01:13:52;101209.05;;;28.70;29.69
52291;BME280;39663;45.432;28.050;2022-08-04T01:14:43;101210.17;;;28.67;29.61
52291;BME280;39663;45.432;28.050;2022-08-04T01:15:26;101212.07;;;28.62;29.52
52291;BME280;39663;45.432;28.050;2022-08-04T01:16:09;101214.02;;;28.91;29.55
52291;BME280;39663;45.432;28.050;2022-08-04T01:16:48;101212.46;;;29.06;29.52
52291;BME280;39663;45.432;28.050;2022-08-04T01:17:50;101214.44;;;28.93;29.62
52291;BME280;39663;45.432;28.050;2022-08-04T01:18:56;101214.78;;;28.68;29.71
52291;BME280;39663;45.432;28.050;2022-08-04T01:19:52;101212.42;;;28.70;29.74
52291;BME280;39663;45.432;28.050;2022-08-04T01:20:33;101211.96;;;28.78;29.61
52291;BME280;39663;45.432;28.050;2022-08-04T01:21:42;101211.10;;;28.62;29.59
52291;BME280;39663;45.432;28.050;2022-08-04T01:23:01;101211.35;;;29.01;29.63
52291;BME280;39663;45.432;28.050;2022-08-04T01:23:57;101213.48;;;28.78;29.60
52291;BME280;39663;45.432;28.050;2022-08-04T01:25:06;101213.16;;;28.55;29.67
52291;BME280;39663;45.432;28.050;2022-08-04T01:26:12;101210.56;;;28.78;29.65
52291;BME280;39663;45.432;28.050;2022-08-04T01:27:08;101209.07;;;28.86;29.85
52291;BME280;39663;45.432;28.050;2022-08-04T01:28:13;101210.38;;;28.68;30.07
52291;BME280;39663;45.432;28.050;2022-08-04T01:29:26;101210.80;;;28.75;30.01
52291;BME280;39663;45.432;28.050;2022-08-04T01:47:34;101201.71;;;28.35;30.44
52291;BME280;39663;45.432;28.050;2022-08-04T01:48:11;101202.59;;;27.93;30.63
52291;BME280;39663;45.432;28.050;2022-08-04T01:49:00;101199.17;;;28.48;30.54
52291;BME280;39663;45.432;28.050;2022-08-04T01:49:37;101201.57;;;28.45;30.54
52291;BME280;39663;45.432;28.050;2022-08-04T01:50:12;101201.37;;;28.39;30.60
52291;BME280;39663;45.432;28.050;2022-08-04T01:50:46;101201.20;;;28.40;30.70
52291;BME280;39663;45.432;28.050;2022-08-04T01:51:22;101198.79;;;28.50;30.54
52291;BME280;39663;45.432;28.050;2022-08-04T01:51:56;101199.36;;;28.51;30.49
52291;BME280;39663;45.432;28.050;2022-08-04T01:52:33;101198.04;;;28.26;30.54
52291;BME280;39663;45.432;28.050;2022-08-04T01:53:06;101197.14;;;28.43;30.66
52291;BME280;39663;45.432;28.050;2022-08-04T01:53:41;101198.55;;;28.41;30.71
52291;BME280;39663;45.432;28.050;2022-08-04T01:54:15;101197.20;;;28.54;30.52
52291;BME280;39663;45.432;28.050;2022-08-04T01:54:48;101197.09;;;28.56;30.45
52291;BME280;39663;45.432;28.050;2022-08-04T01:55:22;101197.11;;;28.59;30.40
52291;BME280;39663;45.432;28.050;2022-08-04T01:56:02;101197.18;;;28.38;30.63
52291;BME280;39663;45.432;28.050;2022-08-04T01:56:50;101197.47;;;28.59;30.73
52291;BME280;39663;45.432;28.050;2022-08-04T01:57:30;101197.68;;;28.16;30.76
52291;BME280;39663;45.432;28.050;2022-08-04T01:58:04;101198.50;;;28.38;30.75
52291;BME280;39663;45.432;28.050;2022-08-04T01:58:38;101199.79;;;28.33;30.78
52291;BME280;39663;45.432;28.050;2022-08-04T01:59:18;101201.22;;;28.37;30.71
52291;BME280;39663;45.432;28.050;2022-08-04T01:59:55;101200.90;;;28.37;30.67
52291;BME280;39663;45.432;28.050;2022-08-04T02:00:30;101199.03;;;28.43;30.58
52291;BME280;39663;45.432;28.050;2022-08-04T02:01:33;101199.38;;;28.56;30.47
52291;BME280;39663;45.432;28.050;2022-08-04T02:02:13;101199.86;;;28.25;30.62
52291;BME280;39663;45.432;28.050;2022-08-04T02:02:47;101200.09;;;28.44;30.73
52291;BME280;39663;45.432;28.050;2022-08-04T02:03:23;101199.30;;;28.42;30.68
52291;BME280;39663;45.432;28.050;2022-08-04T02:04:09;101201.65;;;28.20;30.92
52291;BME280;39663;45.432;28.050;2022-08-04T02:04:45;101201.15;;;28.34;30.82
52291;BME280;39663;45.432;28.050;2022-08-04T02:05:19;101199.71;;;28.33;30.76
52291;BME280;39663;45.432;28.050;2022-08-04T02:08:26;101199.98;;;28.34;30.82
52291;BME280;39663;45.432;28.050;2022-08-04T02:09:10;101201.61;;;28.23;31.01
52291;BME280;39663;45.432;28.050;2022-08-04T02:27:07;101203.09;;;28.08;31.65
52291;BME280;39663;45.432;28.050;2022-08-04T02:28:08;101207.07;;;28.10;31.65
52291;BME280;39663;45.432;28.050;2022-08-04T02:28:47;101206.40;;;27.98;31.55
52291;BME280;39663;45.432;28.050;2022-08-04T02:30:08;101205.83;;;28.07;31.78
52291;BME280;39663;45.432;28.050;2022-08-04T02:31:00;101207.97;;;27.85;31.72
52291;BME280;39663;45.432;28.050;2022-08-04T02:31:45;101208.30;;;27.87;31.66
52291;BME280;39663;45.432;28.050;2022-08-04T02:32:25;101210.01;;;27.91;31.69
52291;BME280;39663;45.432;28.050;2022-08-04T02:33:04;101210.70;;;27.81;31.81
52291;BME280;39663;45.432;28.050;2022-08-04T02:34:17;101211.30;;;27.80;31.89
52291;BME280;39663;45.432;28.050;2022-08-04T02:34:56;101210.90;;;27.99;31.88
52291;BME280;39663;45.432;28.050;2022-08-04T02:51:53;101222.50;;;27.43;32.52
52291;BME280;39663;45.432;28.050;2022-08-04T02:52:31;101221.12;;;27.44;32.48
52291;BME280;39663;45.432;28.050;2022-08-04T02:53:18;101219.95;;;27.60;32.56
52291;BME280;39663;45.432;28.050;2022-08-04T02:53:59;101222.24;;;27.04;32.80
52291;BME280;39663;45.432;28.050;2022-08-04T02:54:34;101222.98;;;27.24;32.51
52291;BME280;39663;45.432;28.050;2022-08-04T02:55:21;101222.69;;;27.49;32.55
52291;BME280;39663;45.432;28.050;2022-08-04T02:56:00;101221.44;;;27.39;32.63
52291;BME280;39663;45.432;28.050;2022-08-04T02:56:43;101221.57;;;27.35;32.75
52291;BME280;39663;45.432;28.050;2022-08-04T02:57:30;101220.36;;;27.39;32.75
52291;BME280;39663;45.432;28.050;2022-08-04T02:58:14;101220.49;;;27.05;32.74
52291;BME280;39663;45.432;28.050;2022-08-04T02:58:50;101221.16;;;27.58;32.43
52291;BME280;39663;45.432;28.050;2022-08-04T02:59:38;101221.29;;;27.50;32.21
52291;BME280;39663;45.432;28.050;2022-08-04T03:00:16;101221.37;;;27.63;32.33
52291;BME280;39663;45.432;28.050;2022-08-04T03:00:50;101223.09;;;27.45;32.41
52291;BME280;39663;45.432;28.050;2022-08-04T03:01:29;101226.24;;;27.52;32.55
52291;BME280;39663;45.432;28.050;2022-08-04T03:02:01;101222.21;;;27.81;32.48
52291;BME280;39663;45.432;28.050;2022-08-04T03:02:49;101222.91;;;27.63;32.55
52291;BME280;39663;45.432;28.050;2022-08-04T03:03:34;101220.81;;;27.57;32.47
52291;BME280;39663;45.432;28.050;2022-08-04T03:04:21;101221.85;;;27.74;32.41
52291;BME280;39663;45.432;28.050;2022-08-04T03:05:09;101223.50;;;27.88;32.19
52291;BME280;39663;45.432;28.050;2022-08-04T03:06:02;101222.38;;;27.50;32.38
52291;BME280;39663;45.432;28.050;2022-08-04T03:10:53;101221.52;;;27.55;32.23
52291;BME280;39663;45.432;28.050;2022-08-04T03:12:23;101220.69;;;27.73;32.24
52291;BME280;39663;45.432;28.050;2022-08-04T03:13:33;101222.62;;;28.19;31.92
52291;BME280;39663;45.432;28.050;2022-08-04T03:14:36;101225.62;;;27.99;31.93
52291;BME280;39663;45.432;28.050;2022-08-04T03:16:01;101224.00;;;27.95;32.12
52291;BME280;39663;45.432;28.050;2022-08-04T03:17:06;101222.39;;;27.64;32.11
52291;BME280;39663;45.432;28.050;2022-08-04T03:18:18;101223.63;;;27.76;32.07
52291;BME280;39663;45.432;28.050;2022-08-04T03:20:19;101222.90;;;27.87;31.86
52291;BME280;39663;45.432;28.050;2022-08-04T03:21:20;101227.03;;;28.32;32.01
52291;BME280;39663;45.432;28.050;2022-08-04T03:39:13;101233.57;;;28.29;31.79
52291;BME280;39663;45.432;28.050;2022-08-04T03:40:18;101235.04;;;28.17;32.02
52291;BME280;39663;45.432;28.050;2022-08-04T03:41:07;101235.64;;;28.09;31.83
52291;BME280;39663;45.432;28.050;2022-08-04T03:59:49;101229.53;;;28.57;31.57
52291;BME280;39663;45.432;28.050;2022-08-04T04:02:05;101231.20;;;27.69;31.66
52291;BME280;39663;45.432;28.050;2022-08-04T04:03:37;101233.35;;;27.98;31.80
52291;BME280;39663;45.432;28.050;2022-08-04T04:04:31;101233.31;;;28.41;31.55
52291;BME280;39663;45.432;28.050;2022-08-04T04:05:56;101231.19;;;28.17;31.22
52291;BME280;39663;45.432;28.050;2022-08-04T04:06:48;101232.90;;;28.49;30.91
52291;BME280;39663;45.432;28.050;2022-08-04T04:08:16;101236.56;;;28.55;30.78
52291;BME280;39663;45.432;28.050;2022-08-04T04:09:11;101234.43;;;28.10;30.93
52291;BME280;39663;45.432;28.050;2022-08-04T04:10:08;101231.89;;;28.08;30.92
52291;BME280;39663;45.432;28.050;2022-08-04T04:11:03;101234.95;;;28.85;30.44
52291;BME280;39663;45.432;28.050;2022-08-04T04:12:00;101233.17;;;29.13;30.15
52291;BME280;39663;45.432;28.050;2022-08-04T04:12:51;101236.17;;;29.08;30.28
52291;BME280;39663;45.432;28.050;2022-08-04T04:13:49;101235.29;;;28.16;30.29
52291;BME280;39663;45.432;28.050;2022-08-04T04:14:48;101235.98;;;28.59;30.23
52291;BME280;39663;45.432;28.050;2022-08-04T04:15:38;101236.55;;;29.20;30.15
52291;BME280;39663;45.432;28.050;2022-08-04T04:16:39;101236.87;;;29.36;29.90
52291;BME280;39663;45.432;28.050;2022-08-04T04:17:33;101237.10;;;29.30;29.97
52291;BME280;39663;45.432;28.050;2022-08-04T04:18:18;101237.92;;;29.40;29.87
52291;BME280;39663;45.432;28.050;2022-08-04T04:19:35;101236.47;;;29.20;30.10
52291;BME280;39663;45.432;28.050;2022-08-04T04:21:20;101239.14;;;29.21;30.14
52291;BME280;39663;45.432;28.050;2022-08-04T04:22:12;101240.31;;;29.47;30.30
52291;BME280;39663;45.432;28.050;2022-08-04T04:23:01;101241.62;;;29.06;30.32
52291;BME280;39663;45.432;28.050;2022-08-04T04:23:54;101239.25;;;29.29;30.40
52291;BME280;39663;45.432;28.050;2022-08-04T04:24:39;101239.43;;;29.48;30.47
52291;BME280;39663;45.432;28.050;2022-08-04T04:25:32;101238.85;;;29.03;30.60
52291;BME280;39663;45.432;28.050;2022-08-04T04:26:21;101240.86;;;29.15;30.59
52291;BME280;39663;45.432;28.050;2022-08-04T04:27:07;101240.24;;;29.20;30.60
52291;BME280;39663;45.432;28.050;2022-08-04T04:27:48;101241.44;;;28.91;30.79
52291;BME280;39663;45.432;28.050;2022-08-04T04:28:36;101240.39;;;29.37;30.61
52291;BME280;39663;45.432;28.050;2022-08-04T04:29:28;101240.35;;;29.47;30.55
52291;BME280;39663;45.432;28.050;2022-08-04T04:30:06;101241.49;;;29.33;30.38
52291;BME280;39663;45.432;28.050;2022-08-04T04:30:45;101242.21;;;29.35;30.44
52291;BME280;39663;45.432;28.050;2022-08-04T04:31:40;101241.09;;;28.87;30.63
52291;BME280;39663;45.432;28.050;2022-08-04T04:32:22;101240.89;;;29.29;30.59
52291;BME280;39663;45.432;28.050;2022-08-04T04:33:18;101239.86;;;29.18;30.57
52291;BME280;39663;45.432;28.050;2022-08-04T04:34:07;101240.41;;;29.03;30.58
52291;BME280;39663;45.432;28.050;2022-08-04T04:34:46;101239.35;;;29.27;30.57
52291;BME280;39663;45.432;28.050;2022-08-04T04:35:32;101239.56;;;29.05;30.57
52291;BME280;39663;45.432;28.050;2022-08-04T04:37:11;101238.04;;;29.20;30.60
52291;BME280;39663;45.432;28.050;2022-08-04T04:38:00;101239.78;;;29.08;30.44
52291;BME280;39663;45.432;28.050;2022-08-04T04:38:46;101242.24;;;29.33;30.42
52291;BME280;39663;45.432;28.050;2022-08-04T04:39:31;101238.35;;;29.36;30.49
52291;BME280;39663;45.432;28.050;2022-08-04T04:40:22;101240.09;;;28.90;30.54
52291;BME280;39663;45.432;28.050;2022-08-04T04:41:16;101240.19;;;29.03;30.49
52291;BME280;39663;45.432;28.050;2022-08-04T04:42:05;101239.89;;;29.20;30.31
52291;BME280;39663;45.432;28.050;2022-08-04T04:42:47;101241.98;;;29.29;30.20
52291;BME280;39663;45.432;28.050;2022-08-04T04:43:45;101242.46;;;29.34;30.22
52291;BME280;39663;45.432;28.050;2022-08-04T04:44:42;101238.57;;;29.61;30.02
52291;BME280;39663;45.432;28.050;2022-08-04T04:45:23;101240.47;;;29.34;30.09
52291;BME280;39663;45.432;28.050;2022-08-04T04:46:04;101239.25;;;29.43;30.08
52291;BME280;39663;45.432;28.050;2022-08-04T04:46:44;101236.47;;;29.44;30.10
52291;BME280;39663;45.432;28.050;2022-08-04T04:47:28;101239.13;;;29.69;30.08
52291;BME280;39663;45.432;28.050;2022-08-04T04:48:11;101237.79;;;29.61;30.02
52291;BME280;39663;45.432;28.050;2022-08-04T04:48:50;101239.89;;;29.49;30.17
52291;BME280;39663;45.432;28.050;2022-08-04T04:49:30;101237.73;;;29.67;30.08
52291;BME280;39663;45.432;28.050;2022-08-04T04:50:10;101235.59;;;29.80;30.14
52291;BME280;39663;45.432;28.050;2022-08-04T04:50:54;101237.66;;;29.54;30.02
52291;BME280;39663;45.432;28.050;2022-08-04T04:51:35;101238.69;;;29.39;30.17
52291;BME280;39663;45.432;28.050;2022-08-04T04:52:16;101239.65;;;29.39;30.29
52291;BME280;39663;45.432;28.050;2022-08-04T04:52:53;101239.85;;;29.55;30.26
52291;BME280;39663;45.432;28.050;2022-08-04T04:53:32;101243.26;;;29.04;30.46
52291;BME280;39663;45.432;28.050;2022-08-04T04:54:12;101244.31;;;29.16;30.47
52291;BME280;39663;45.432;28.050;2022-08-04T04:54:52;101241.53;;;29.30;30.34
52291;BME280;39663;45.432;28.050;2022-08-04T04:55:30;101242.79;;;29.50;30.28
52291;BME280;39663;45.432;28.050;2022-08-04T04:56:07;101242.09;;;29.81;30.23
52291;BME280;39663;45.432;28.050;2022-08-04T04:56:46;101240.52;;;29.56;30.00
52291;BME280;39663;45.432;28.050;2022-08-04T04:57:21;101243.33;;;29.65;29.99
52291;BME280;39663;45.432;28.050;2022-08-04T04:57:57;101243.67;;;29.79;29.59
52291;BME280;39663;45.432;28.050;2022-08-04T04:58:31;101244.24;;;29.85;29.74
52291;BME280;39663;45.432;28.050;2022-08-04T04:59:09;101245.34;;;29.66;29.91
52291;BME280;39663;45.432;28.050;2022-08-04T04:59:48;101244.43;;;29.74;29.95
52291;BME280;39663;45.432;28.050;2022-08-04T05:00:20;101245.26;;;29.81;29.82
52291;BME280;39663;45.432;28.050;2022-08-04T05:01:14;101246.88;;;29.83;29.86
52291;BME280;39663;45.432;28.050;2022-08-04T05:02:16;101247.25;;;29.64;30.06
52291;BME280;39663;45.432;28.050;2022-08-04T05:03:37;101246.65;;;29.88;29.74
52291;BME280;39663;45.432;28.050;2022-08-04T05:04:27;101249.19;;;29.91;29.81
52291;BME280;39663;45.432;28.050;2022-08-04T05:05:12;101247.56;;;29.99;29.71
52291;BME280;39663;45.432;28.050;2022-08-04T05:05:59;101250.52;;;29.83;29.72
52291;BME280;39663;45.432;28.050;2022-08-04T05:06:48;101252.09;;;29.78;29.98
52291;BME280;39663;45.432;28.050;2022-08-04T05:07:45;101252.19;;;29.90;29.85
52291;BME280;39663;45.432;28.050;2022-08-04T05:08:41;101251.62;;;30.06;29.76
52291;BME280;39663;45.432;28.050;2022-08-04T05:09:29;101252.36;;;29.91;29.91
52291;BME280;39663;45.432;28.050;2022-08-04T05:10:09;101251.57;;;30.09;29.75
52291;BME280;39663;45.432;28.050;2022-08-04T05:10:56;101249.77;;;30.15;29.50
52291;BME280;39663;45.432;28.050;2022-08-04T05:11:47;101251.33;;;30.20;29.64
52291;BME280;39663;45.432;28.050;2022-08-04T05:12:32;101255.60;;;30.11;29.49
52291;BME280;39663;45.432;28.050;2022-08-04T05:13:16;101254.57;;;30.35;29.46
52291;BME280;39663;45.432;28.050;2022-08-04T05:13:57;101251.14;;;30.16;29.38
52291;BME280;39663;45.432;28.050;2022-08-04T05:14:33;101254.74;;;30.17;29.24
52291;BME280;39663;45.432;28.050;2022-08-04T05:15:07;101254.33;;;30.23;29.57
52291;BME280;39663;45.432;28.050;2022-08-04T05:15:43;101256.02;;;30.18;29.54
52291;BME280;39663;45.432;28.050;2022-08-04T05:16:19;101254.58;;;30.18;29.64
52291;BME280;39663;45.432;28.050;2022-08-04T05:16:58;101253.09;;;30.34;29.27
52291;BME280;39663;45.432;28.050;2022-08-04T05:17:35;101255.20;;;30.32;29.55
52291;BME280;39663;45.432;28.050;2022-08-04T05:18:13;101252.50;;;30.31;29.47
52291;BME280;39663;45.432;28.050;2022-08-04T05:18:51;101254.92;;;30.36;29.21
52291;BME280;39663;45.432;28.050;2022-08-04T05:19:32;101253.69;;;30.23;29.65
52291;BME280;39663;45.432;28.050;2022-08-04T05:20:40;101251.34;;;30.15;29.60
52291;BME280;39663;45.432;28.050;2022-08-04T05:21:28;101253.02;;;30.27;29.47
52291;BME280;39663;45.432;28.050;2022-08-04T05:22:07;101253.54;;;30.71;29.07
52291;BME280;39663;45.432;28.050;2022-08-04T05:22:46;101254.31;;;30.70;29.28
52291;BME280;39663;45.432;28.050;2022-08-04T05:23:25;101253.66;;;30.39;29.36
52291;BME280;39663;45.432;28.050;2022-08-04T05:24:03;101255.47;;;30.53;29.42
52291;BME280;39663;45.432;28.050;2022-08-04T05:24:39;101253.76;;;30.79;29.12
52291;BME280;39663;45.432;28.050;2022-08-04T05:25:19;101252.45;;;30.70;28.98
52291;BME280;39663;45.432;28.050;2022-08-04T05:25:55;101254.06;;;30.95;29.10
52291;BME280;39663;45.432;28.050;2022-08-04T05:26:31;101255.56;;;30.87;28.83
52291;BME280;39663;45.432;28.050;2022-08-04T05:27:10;101256.80;;;30.91;29.58
52291;BME280;39663;45.432;28.050;2022-08-04T05:27:50;101257.40;;;30.05;30.35
52291;BME280;39663;45.432;28.050;2022-08-04T05:28:27;101253.59;;;30.33;29.67
52291;BME280;39663;45.432;28.050;2022-08-04T05:29:04;101253.77;;;30.45;29.42
52291;BME280;39663;45.432;28.050;2022-08-04T05:29:44;101255.48;;;30.16;29.70
52291;BME280;39663;45.432;28.050;2022-08-04T05:30:18;101254.87;;;30.24;30.23
52291;BME280;39663;45.432;28.050;2022-08-04T05:30:52;101254.23;;;30.29;30.19
52291;BME280;39663;45.432;28.050;2022-08-04T05:31:31;101253.79;;;30.22;30.16
52291;BME280;39663;45.432;28.050;2022-08-04T05:32:08;101254.61;;;30.38;30.25
52291;BME280;39663;45.432;28.050;2022-08-04T05:32:47;101254.66;;;30.36;29.84
52291;BME280;39663;45.432;28.050;2022-08-04T05:33:26;101253.73;;;29.98;30.36
52291;BME280;39663;45.432;28.050;2022-08-04T05:34:06;101251.49;;;30.07;30.52
52291;BME280;39663;45.432;28.050;2022-08-04T05:34:41;101254.12;;;30.05;30.58
52291;BME280;39663;45.432;28.050;2022-08-04T05:35:19;101252.23;;;30.26;30.48